Time;durP1;ratioP1;P1;durP2;ratioP2;P2;SDS_P1;SDS_P2;PMS_P1;PMS_P2;Temp;Humidity;BMP_temperature;BMP_pressure;BME280_temperature;BME280_humidity;BME280_pressure;Samples;Min_cycle;Max_cycle;Signal;HPM_P1;HPM_P2
2023/05/19 00:02:20;;;;;;;;;;;;;;;;;;4981342;28;19920;-72
2023/05/19 00:04:47;;;;;;;;;;;;;;;;;;4983596;28;19909;-71
2023/05/19 00:07:13;;;;;;;;;;;;;;;;;;4980289;28;19964;-71
2023/05/19 00:09:39;;;;;;;;;;;;;;;;;;4981846;28;19996;-71
2023/05/19 00:12:05;;;;;;;;;;;;;;;;;;4978516;28;19920;-71
2023/05/19 00:14:31;;;;;;;;;;;;;;;;;;4978925;28;19917;-71
2023/05/19 00:16:57;;;;;;;;;;;;;;;;;;4975811;28;19921;-71
2023/05/19 00:19:24;;;;;;;;;;;;;;;;;;4977401;28;20411;-71
2023/05/19 00:21:50;;;;;;;;;;;;;;;;;;4976009;28;19917;-71
2023/05/19 00:24:16;;;;;;;;;;;;;;;;;;4979274;28;20300;-70
2023/05/19 00:26:42;;;;;;;;;;;;;;;;;;4980174;28;19952;-70
2023/05/19 00:29:08;;;;;;;;;;;;;;;;;;4978126;28;19972;-70
2023/05/19 00:31:34;;;;;;;;;;;;;;;;;;4977917;28;20369;-70
2023/05/19 00:34:00;;;;;;;;;;;;;;;;;;4977054;28;19924;-70
2023/05/19 00:36:25;;;;;;;;;;;;;;;;;;4976234;28;20544;-70
2023/05/19 00:38:51;;;;;;;;;;;;;;;;;;4977963;28;19918;-70
2023/05/19 00:41:17;;;;;;;;;;;;;;;;;;4981745;28;19914;-71
2023/05/19 00:43:43;;;;;;;;;;;;;;;;;;4976799;28;20656;-70
2023/05/19 00:46:09;;;;;;;;;;;;;;;;;;4977948;28;19918;-71
2023/05/19 00:48:35;;;;;;;;;;;;;;;;;;4981181;28;20332;-71
2023/05/19 00:51:03;;;;;;;;;;;;;;;;;;4977969;28;19924;-71
2023/05/19 00:53:29;;;;;;;;;;;;;;;;;;4981169;28;20087;-70
2023/05/19 00:55:55;;;;;;;;;;;;;;;;;;4974369;28;20562;-71
2023/05/19 00:58:22;;;;;;;;;;;;;;;;;;4979050;28;20277;-73
2023/05/19 01:00:48;;;;;;;;;;;;;;;;;;4977647;28;20551;-69
2023/05/19 01:03:19;;;;;;;;;;;;;;;;;;4981342;28;20797;-72
2023/05/19 01:05:45;;;;;;;;;;;;;;;;;;4981105;28;19914;-70
2023/05/19 01:08:11;;;;;;;;;;;;;;;;;;4974521;28;19995;-70
2023/05/19 01:10:36;;;;;;;;;;;;;;;;;;4977675;28;19924;-69
2023/05/19 01:13:03;;;;;;;;;;;;;;;;;;4977116;28;20374;-68
2023/05/19 01:15:29;;;;;;;;;;;;;;;;;;4978680;28;19960;-71
2023/05/19 01:17:55;;;;;;;;;;;;;;;;;;4974364;28;20024;-71
2023/05/19 01:20:21;;;;;;;;;;;;;;;;;;4990756;28;20028;-71
2023/05/19 01:22:47;;;;;;;;;;;;;;;;;;4977697;28;20332;-71
2023/05/19 01:25:15;;;;;;;;;;;;;;;;;;4979466;28;19910;-71
2023/05/19 01:27:41;;;;;;;;;;;;;;;;;;4978354;28;20000;-70
2023/05/19 01:30:07;;;;;;;;;;;;;;;;;;4974487;28;19932;-71
2023/05/19 01:32:33;;;;;;;;;;;;;;;;;;4979227;28;20344;-69
2023/05/19 01:34:59;;;;;;;;;;;;;;;;;;4976886;28;19917;-69
2023/05/19 01:37:24;;;;;;;;;;;;;;;;;;4977227;28;20358;-69
2023/05/19 01:39:50;;;;;;;;;;;;;;;;;;4975193;28;19920;-69
2023/05/19 01:42:16;;;;;;;;;;;;;;;;;;4974248;28;20821;-70
2023/05/19 01:44:42;;;;;;;;;;;;;;;;;;4977737;28;20163;-70
2023/05/19 01:47:08;;;;;;;;;;;;;;;;;;4975827;28;20820;-71
2023/05/19 01:49:34;;;;;;;;;;;;;;;;;;4977936;28;19972;-71
2023/05/19 01:52:00;;;;;;;;;;;;;;;;;;4976128;28;19913;-70
2023/05/19 01:54:26;;;;;;;;;;;;;;;;;;4977418;28;19920;-71
2023/05/19 01:56:52;;;;;;;;;;;;;;;;;;4974692;28;19968;-71
2023/05/19 01:59:18;;;;;;;;;;;;;;;;;;4977905;28;19941;-69
2023/05/19 02:01:44;;;;;;;;;;;;;;;;;;4977632;28;19917;-69
2023/05/19 02:04:10;;;;;;;;;;;;;;;;;;4973089;28;19925;-69
2023/05/19 02:06:36;;;;;;;;;;;;;;;;;;4978162;28;19917;-69
2023/05/19 02:09:02;;;;;;;;;;;;;;;;;;4976727;28;19921;-69
2023/05/19 02:11:28;;;;;;;;;;;;;;;;;;4983336;28;19914;-69
2023/05/19 02:13:54;;;;;;;;;;;;;;;;;;4973960;28;20390;-71
2023/05/19 02:16:20;;;;;;;;;;;;;;;;;;4978081;28;20387;-69
2023/05/19 02:18:46;;;;;;;;;;;;;;;;;;4977791;28;19921;-69
2023/05/19 02:21:12;;;;;;;;;;;;;;;;;;4977988;28;20237;-69
2023/05/19 02:23:38;;;;;;;;;;;;;;;;;;4975830;28;19960;-70
2023/05/19 02:26:04;;;;;;;;;;;;;;;;;;4974264;28;20475;-70
2023/05/19 02:28:30;;;;;;;;;;;;;;;;;;4973737;28;19913;-68
2023/05/19 02:30:56;;;;;;;;;;;;;;;;;;4974856;28;20352;-69
2023/05/19 02:33:24;;;;;;;;;;;;;;;;;;4977435;28;19921;-69
2023/05/19 02:35:50;;;;;;;;;;;;;;;;;;4989788;28;19910;-69
2023/05/19 02:38:16;;;;;;;;;;;;;;;;;;4981364;28;19917;-71
2023/05/19 02:40:42;;;;;;;;;;;;;;;;;;4977170;28;20016;-69
2023/05/19 02:43:08;;;;;;;;;;;;;;;;;;4973530;28;19924;-69
2023/05/19 02:45:35;;;;;;;;;;;;;;;;;;4978626;28;20329;-70
2023/05/19 02:48:00;;;;;;;;;;;;;;;;;;4967666;28;20019;-70
2023/05/19 02:50:26;;;;;;;;;;;;;;;;;;4974034;28;19982;-70
2023/05/19 02:52:52;;;;;;;;;;;;;;;;;;4975462;28;20233;-70
2023/05/19 02:55:18;;;;;;;;;;;;;;;;;;4975311;28;20161;-70
2023/05/19 02:57:44;;;;;;;;;;;;;;;;;;4980387;28;20564;-70
2023/05/19 03:00:10;;;;;;;;;;;;;;;;;;4973932;28;19956;-69
2023/05/19 03:02:36;;;;;;;;;;;;;;;;;;4977262;28;20309;-72
2023/05/19 03:05:02;;;;;;;;;;;;;;;;;;4974772;28;19913;-70
2023/05/19 03:07:28;;;;;;;;;;;;;;;;;;4978318;28;20012;-71
2023/05/19 03:09:54;;;;;;;;;;;;;;;;;;4988688;28;20012;-70
2023/05/19 03:12:20;;;;;;;;;;;;;;;;;;4977728;28;19975;-71
2023/05/19 03:14:46;;;;;;;;;;;;;;;;;;4977109;28;19914;-71
2023/05/19 03:17:13;;;;;;;;;;;;;;;;;;4976741;28;19917;-72
2023/05/19 03:19:40;;;;;;;;;;;;;;;;;;4992446;28;19913;-71
2023/05/19 03:22:06;;;;;;;;;;;;;;;;;;4978492;28;20423;-71
2023/05/19 03:24:32;;;;;;;;;;;;;;;;;;4974695;28;19913;-71
2023/05/19 03:26:58;;;;;;;;;;;;;;;;;;4969838;28;20377;-71
2023/05/19 03:29:24;;;;;;;;;;;;;;;;;;4976904;28;20043;-70
2023/05/19 03:31:50;;;;;;;;;;;;;;;;;;4978792;28;19995;-70
2023/05/19 03:34:16;;;;;;;;;;;;;;;;;;4980890;28;19922;-72
2023/05/19 03:36:43;;;;;;;;;;;;;;;;;;4979447;28;19995;-70
2023/05/19 03:39:09;;;;;;;;;;;;;;;;;;4974886;28;20301;-70
2023/05/19 03:41:36;;;;;;;;;;;;;;;;;;4980275;28;19914;-70
2023/05/19 03:44:01;;;;;;;;;;;;;;;;;;4979866;28;19913;-70
2023/05/19 03:46:27;;;;;;;;;;;;;;;;;;4980487;28;19914;-71
2023/05/19 03:48:53;;;;;;;;;;;;;;;;;;5252951;23;20345;-72
2023/05/19 03:51:19;;;;;;;;;;;;;;;;;;4963327;28;20024;-71
2023/05/19 03:53:45;;;;;;;;;;;;;;;;;;4958364;28;19941;-72
2023/05/19 03:56:12;;;;;;;;;;;;;;;;;;4955174;28;19915;-72
2023/05/19 03:58:42;;;;;;;;;;;;;;;;;;4959184;28;19918;-72
2023/05/19 04:01:08;;;;;;;;;;;;;;;;;;4951732;28;20064;-70
2023/05/19 04:03:34;;;;;;;;;;;;;;;;;;4960847;28;19918;-71
2023/05/19 04:06:00;;;;;;;;;;;;;;;;;;4956720;28;19914;-71
2023/05/19 04:08:26;;;;;;;;;;;;;;;;;;4958891;28;20025;-71
2023/05/19 04:10:52;;;;;;;;;;;;;;;;;;4957286;28;20027;-73
2023/05/19 04:13:18;;;;;;;;;;;;;;;;;;4957059;28;20467;-71
2023/05/19 04:15:44;;;;;;;;;;;;;;;;;;4957525;28;20316;-71
2023/05/19 04:18:10;;;;;;;;;;;;;;;;;;4955392;28;19957;-71
2023/05/19 04:20:36;;;;;;;;;;;;;;;;;;4960668;28;20016;-71
2023/05/19 04:23:02;;;;;;;;;;;;;;;;;;4956161;28;19913;-74
2023/05/19 04:25:28;;;;;;;;;;;;;;;;;;4960774;28;20153;-75
2023/05/19 04:27:56;;;;;;;;;;;;;;;;;;4957628;28;20701;-75
2023/05/19 04:30:22;;;;;;;;;;;;;;;;;;4960819;28;20216;-75
2023/05/19 04:32:51;;;;;;;;;;;;;;;;;;4958744;28;20477;-74
2023/05/19 04:35:18;;;;;;;;;;;;;;;;;;4958951;28;19960;-76
2023/05/19 04:37:47;;;;;;;;;;;;;;;;;;4957484;28;19960;-76
2023/05/19 04:40:13;;;;;;;;;;;;;;;;;;4960359;28;19964;-75
2023/05/19 04:42:44;;;;;;;;;;;;;;;;;;4963784;28;20282;-75
2023/05/19 04:45:12;;;;;;;;;;;;;;;;;;4960098;28;19914;-74
2023/05/19 04:47:39;;;;;;;;;;;;;;;;;;4959557;28;20330;-77
2023/05/19 04:50:06;;;;;;;;;;;;;;;;;;4958173;28;20204;-74
2023/05/19 04:52:32;;;;;;;;;;;;;;;;;;4961914;28;19914;-76
2023/05/19 04:54:58;;;;;;;;;;;;;;;;;;4959983;28;19925;-76
2023/05/19 04:57:23;;;;;;;;;;;;;;;;;;4961579;28;19957;-75
2023/05/19 04:59:49;;;;;;;;;;;;;;;;;;4955070;28;20282;-75
2023/05/19 05:02:15;;;;;;;;;;;;;;;;;;4962691;28;19914;-73
2023/05/19 05:04:42;;;;;;;;;;;;;;;;;;4960194;28;19920;-73
2023/05/19 05:07:08;;;;;;;;;;;;;;;;;;4958301;28;19925;-73
2023/05/19 05:09:34;;;;;;;;;;;;;;;;;;4960421;28;19913;-72
2023/05/19 05:12:00;;;;;;;;;;;;;;;;;;4956439;28;19914;-73
2023/05/19 05:14:26;;;;;;;;;;;;;;;;;;4961097;28;20401;-72
2023/05/19 05:16:52;;;;;;;;;;;;;;;;;;4953901;28;19918;-73
2023/05/19 05:19:18;;;;;;;;;;;;;;;;;;4959524;28;20031;-72
2023/05/19 05:21:44;;;;;;;;;;;;;;;;;;4958752;28;20827;-72
2023/05/19 05:24:10;;;;;;;;;;;;;;;;;;4955435;28;19957;-72
2023/05/19 05:26:36;;;;;;;;;;;;;;;;;;4958400;28;20020;-71
2023/05/19 05:29:02;;;;;;;;;;;;;;;;;;4957356;28;19924;-71
2023/05/19 05:31:28;;;;;;;;;;;;;;;;;;4959058;28;19929;-71
2023/05/19 05:33:54;;;;;;;;;;;;;;;;;;4957577;28;20396;-72
2023/05/19 05:36:20;;;;;;;;;;;;;;;;;;4958144;28;19913;-71
2023/05/19 05:38:46;;;;;;;;;;;;;;;;;;4960006;28;20406;-71
2023/05/19 05:41:12;;;;;;;;;;;;;;;;;;4954776;28;19921;-71
2023/05/19 05:43:38;;;;;;;;;;;;;;;;;;4959723;28;19919;-73
2023/05/19 05:46:04;;;;;;;;;;;;;;;;;;4955856;28;19914;-73
2023/05/19 05:48:30;;;;;;;;;;;;;;;;;;4955628;28;20397;-73
2023/05/19 05:50:56;;;;;;;;;;;;;;;;;;4956512;28;19917;-73
2023/05/19 05:53:22;;;;;;;;;;;;;;;;;;4957169;28;19917;-72
2023/05/19 05:55:48;;;;;;;;;;;;;;;;;;4954757;28;19975;-77
2023/05/19 05:58:15;;;;;;;;;;;;;;;;;;4959725;28;19988;-76
2023/05/19 06:00:47;;;;;;;;;;;;;;;;;;4960139;28;19924;-77
2023/05/19 06:03:13;;;;;;;;;;;;;;;;;;4962310;28;19914;-77
2023/05/19 06:05:39;;;;;;;;;;;;;;;;;;4961105;28;20016;-77
2023/05/19 06:08:05;;;;;;;;;;;;;;;;;;4953223;28;19914;-77
2023/05/19 06:10:31;;;;;;;;;;;;;;;;;;4959035;28;20326;-75
2023/05/19 06:12:57;;;;;;;;;;;;;;;;;;4959555;28;20289;-76
2023/05/19 06:15:23;;;;;;;;;;;;;;;;;;4959993;28;20228;-76
2023/05/19 06:17:49;;;;;;;;;;;;;;;;;;4956475;28;19926;-76
2023/05/19 06:20:15;;;;;;;;;;;;;;;;;;4955785;28;19918;-74
2023/05/19 06:22:41;;;;;;;;;;;;;;;;;;4957728;28;19968;-75
2023/05/19 06:25:10;;;;;;;;;;;;;;;;;;4957318;28;19922;-75
2023/05/19 06:27:36;;;;;;;;;;;;;;;;;;4958061;28;21775;-75
2023/05/19 06:30:02;;;;;;;;;;;;;;;;;;4957656;28;19914;-75
2023/05/19 06:32:28;;;;;;;;;;;;;;;;;;4959664;28;20341;-74
2023/05/19 06:34:54;;;;;;;;;;;;;;;;;;4954259;28;21150;-75
2023/05/19 06:37:21;;;;;;;;;;;;;;;;;;4954939;28;19925;-75
2023/05/19 06:39:48;;;;;;;;;;;;;;;;;;4956522;28;20297;-75
2023/05/19 06:42:14;;;;;;;;;;;;;;;;;;4959675;28;20185;-75
2023/05/19 06:44:40;;;;;;;;;;;;;;;;;;4958349;28;20380;-74
2023/05/19 06:47:06;;;;;;;;;;;;;;;;;;4956194;28;19976;-74
2023/05/19 06:49:32;;;;;;;;;;;;;;;;;;4955314;28;19971;-74
2023/05/19 06:51:58;;;;;;;;;;;;;;;;;;4950464;28;20523;-77
2023/05/19 06:54:24;;;;;;;;;;;;;;;;;;4955492;28;20238;-75
2023/05/19 06:56:50;;;;;;;;;;;;;;;;;;4952027;28;20404;-75
2023/05/19 06:59:16;;;;;;;;;;;;;;;;;;4958789;28;19918;-75
2023/05/19 07:01:42;;;;;;;;;;;;;;;;;;4956139;28;19972;-75
2023/05/19 07:04:08;;;;;;;;;;;;;;;;;;4952226;28;22384;-74
2023/05/19 07:06:34;;;;;;;;;;;;;;;;;;4958398;28;19914;-75
2023/05/19 07:09:00;;;;;;;;;;;;;;;;;;4951413;28;20531;-75
2023/05/19 07:11:26;;;;;;;;;;;;;;;;;;4958275;28;19920;-76
2023/05/19 07:13:52;;;;;;;;;;;;;;;;;;4956315;28;19914;-77
2023/05/19 07:16:18;;;;;;;;;;;;;;;;;;4958443;28;20501;-74
2023/05/19 07:18:44;;;;;;;;;;;;;;;;;;4954982;28;20245;-73
2023/05/19 07:21:10;;;;;;;;;;;;;;;;;;4949995;28;19952;-72
2023/05/19 07:23:36;;;;;;;;;;;;;;;;;;4957653;28;19917;-72
2023/05/19 07:26:02;;;;;;;;;;;;;;;;;;4953590;28;19925;-73
2023/05/19 07:28:28;;;;;;;;;;;;;;;;;;4954997;28;19957;-72
2023/05/19 07:30:55;;;;;;;;;;;;;;;;;;4955194;28;19914;-75
2023/05/19 07:33:21;;;;;;;;;;;;;;;;;;4955654;28;20015;-74
2023/05/19 07:35:46;;;;;;;;;;;;;;;;;;4956532;28;20012;-73
2023/05/19 07:38:12;;;;;;;;;;;;;;;;;;4955997;28;19917;-75
2023/05/19 07:40:38;;;;;;;;;;;;;;;;;;4957972;28;20146;-74
2023/05/19 07:43:05;;;;;;;;;;;;;;;;;;4955250;28;20594;-73
2023/05/19 07:45:31;;;;;;;;;;;;;;;;;;4958125;28;19909;-73
2023/05/19 07:47:56;;;;;;;;;;;;;;;;;;4954774;28;19918;-73
2023/05/19 07:50:22;;;;;;;;;;;;;;;;;;4958665;28;20043;-75
2023/05/19 07:52:48;;;;;;;;;;;;;;;;;;4953687;28;20061;-74
2023/05/19 07:55:14;;;;;;;;;;;;;;;;;;4959584;28;20005;-74
2023/05/19 07:57:40;;;;;;;;;;;;;;;;;;4958419;28;19987;-74
2023/05/19 08:00:08;;;;;;;;;;;;;;;;;;4954255;28;20421;-74
2023/05/19 08:02:34;;;;;;;;;;;;;;;;;;4955190;28;19945;-75
2023/05/19 08:05:00;;;;;;;;;;;;;;;;;;4957707;28;20037;-75
2023/05/19 08:07:26;;;;;;;;;;;;;;;;;;4956850;28;20351;-75
2023/05/19 08:09:52;;;;;;;;;;;;;;;;;;4958725;28;19952;-75
2023/05/19 08:12:18;;;;;;;;;;;;;;;;;;4960096;28;19948;-75
2023/05/19 08:14:44;;;;;;;;;;;;;;;;;;4961844;28;20161;-75
2023/05/19 08:17:10;;;;;;;;;;;;;;;;;;4957923;28;20005;-75
2023/05/19 08:19:36;;;;;;;;;;;;;;;;;;4959996;28;20577;-75
2023/05/19 08:22:02;;;;;;;;;;;;;;;;;;4954933;28;19914;-75
2023/05/19 08:24:29;;;;;;;;;;;;;;;;;;4964642;28;19913;-75
2023/05/19 08:26:55;;;;;;;;;;;;;;;;;;4957731;28;20037;-74
2023/05/19 08:29:21;;;;;;;;;;;;;;;;;;4961261;28;19926;-75
2023/05/19 08:31:47;;;;;;;;;;;;;;;;;;4956537;28;19913;-75
2023/05/19 08:34:13;;;;;;;;;;;;;;;;;;4955997;28;19918;-75
2023/05/19 08:36:40;;;;;;;;;;;;;;;;;;4955833;28;20378;-75
2023/05/19 08:39:07;;;;;;;;;;;;;;;;;;4956742;28;19925;-76
2023/05/19 08:41:33;;;;;;;;;;;;;;;;;;4964090;28;20404;-75
2023/05/19 08:43:58;;;;;;;;;;;;;;;;;;4954926;28;19914;-76
2023/05/19 08:46:25;;;;;;;;;;;;;;;;;;4959640;28;19960;-75
2023/05/19 08:48:51;;;;;;;;;;;;;;;;;;4952667;28;19969;-74
2023/05/19 08:51:17;;;;;;;;;;;;;;;;;;4959082;28;20016;-74
2023/05/19 08:53:44;;;;;;;;;;;;;;;;;;4954250;28;20369;-74
2023/05/19 08:56:10;;;;;;;;;;;;;;;;;;4955843;28;20013;-75
2023/05/19 08:58:36;;;;;;;;;;;;;;;;;;4959774;28;20163;-75
2023/05/19 09:01:02;;;;;;;;;;;;;;;;;;4958370;28;20419;-76
2023/05/19 09:03:29;;;;;;;;;;;;;;;;;;4960818;28;20285;-76
2023/05/19 09:05:55;;;;;;;;;;;;;;;;;;4956028;28;19914;-69
2023/05/19 09:08:21;;;;;;;;;;;;;;;;;;4957718;28;19952;-69
2023/05/19 09:10:47;;;;;;;;;;;;;;;;;;4958957;28;19922;-74
2023/05/19 09:13:13;;;;;;;;;;;;;;;;;;4951725;28;19914;-74
2023/05/19 09:15:40;;;;;;;;;;;;;;;;;;4957489;28;19921;-75
2023/05/19 09:18:06;;;;;;;;;;;;;;;;;;4957406;28;19922;-76
2023/05/19 09:20:32;;;;;;;;;;;;;;;;;;4954531;28;19914;-76
2023/05/19 09:22:58;;;;;;;;;;;;;;;;;;4954469;28;20675;-75
2023/05/19 09:25:25;;;;;;;;;;;;;;;;;;4958798;28;20328;-76
2023/05/19 09:27:51;;;;;;;;;;;;;;;;;;4955352;28;19918;-74
2023/05/19 09:30:17;;;;;;;;;;;;;;;;;;4957248;28;19914;-74
2023/05/19 09:32:43;;;;;;;;;;;;;;;;;;4954651;28;20384;-73
2023/05/19 09:35:09;;;;;;;;;;;;;;;;;;4953760;28;19928;-76
2023/05/19 09:37:35;;;;;;;;;;;;;;;;;;4953638;28;19918;-74
2023/05/19 09:40:01;;;;;;;;;;;;;;;;;;4955848;28;19917;-75
2023/05/19 09:42:28;;;;;;;;;;;;;;;;;;4954079;28;20433;-75
2023/05/19 09:44:54;;;;;;;;;;;;;;;;;;4953652;28;20420;-75
2023/05/19 09:47:20;;;;;;;;;;;;;;;;;;4954466;28;20138;-74
2023/05/19 09:49:46;;;;;;;;;;;;;;;;;;4955945;28;19926;-74
2023/05/19 09:52:12;;;;;;;;;;;;;;;;;;4953755;28;19924;-75
2023/05/19 09:54:39;;;;;;;;;;;;;;;;;;4951589;28;19968;-74
2023/05/19 09:57:06;;;;;;;;;;;;;;;;;;4956549;28;20626;-76
2023/05/19 09:59:32;;;;;;;;;;;;;;;;;;4960219;28;19917;-74
2023/05/19 10:01:58;;;;;;;;;;;;;;;;;;4958435;28;19940;-76
2023/05/19 10:04:25;;;;;;;;;;;;;;;;;;4958248;28;20518;-76
2023/05/19 10:06:52;;;;;;;;;;;;;;;;;;4955332;28;19914;-71
2023/05/19 10:09:18;;;;;;;;;;;;;;;;;;4957561;28;20315;-72
2023/05/19 10:11:44;;;;;;;;;;;;;;;;;;4957138;28;19961;-71
2023/05/19 10:14:10;;;;;;;;;;;;;;;;;;4954022;28;20157;-71
2023/05/19 10:16:36;;;;;;;;;;;;;;;;;;4956576;28;19949;-72
2023/05/19 10:19:02;;;;;;;;;;;;;;;;;;4956903;28;19921;-75
2023/05/19 10:21:28;;;;;;;;;;;;;;;;;;4956353;28;19984;-75
2023/05/19 10:23:54;;;;;;;;;;;;;;;;;;4957355;28;19920;-74
2023/05/19 10:26:20;;;;;;;;;;;;;;;;;;4958191;28;19914;-74
2023/05/19 10:28:46;;;;;;;;;;;;;;;;;;4958419;28;20218;-74
2023/05/19 10:31:12;;;;;;;;;;;;;;;;;;4955325;28;20804;-75
2023/05/19 10:33:38;;;;;;;;;;;;;;;;;;4960054;28;19914;-74
2023/05/19 10:36:07;;;;;;;;;;;;;;;;;;4953478;28;19922;-74
2023/05/19 10:38:33;;;;;;;;;;;;;;;;;;4959447;28;19917;-74
2023/05/19 10:41:00;;;;;;;;;;;;;;;;;;4958782;28;19960;-74
2023/05/19 10:43:26;;;;;;;;;;;;;;;;;;4955868;28;20059;-74
2023/05/19 10:45:52;;;;;;;;;;;;;;;;;;4955131;28;20428;-73
2023/05/19 10:48:17;;;;;;;;;;;;;;;;;;4957211;28;20019;-74
2023/05/19 10:50:44;;;;;;;;;;;;;;;;;;4957981;28;19929;-76
2023/05/19 10:53:10;;;;;;;;;;;;;;;;;;4958515;28;19920;-73
2023/05/19 10:55:36;;;;;;;;;;;;;;;;;;4960020;28;19949;-75
2023/05/19 10:58:02;;;;;;;;;;;;;;;;;;4956652;28;20388;-73
2023/05/19 11:00:28;;;;;;;;;;;;;;;;;;4958816;28;20377;-75
2023/05/19 11:02:56;;;;;;;;;;;;;;;;;;4955955;28;19914;-75
2023/05/19 11:05:22;;;;;;;;;;;;;;;;;;4958446;28;20144;-75
2023/05/19 11:07:48;;;;;;;;;;;;;;;;;;4958570;28;20527;-75
2023/05/19 11:10:14;;;;;;;;;;;;;;;;;;4958697;28;19914;-75
2023/05/19 11:12:43;;;;;;;;;;;;;;;;;;4958084;28;19920;-76
2023/05/19 11:15:09;;;;;;;;;;;;;;;;;;4950455;28;20633;-74
2023/05/19 11:17:35;;;;;;;;;;;;;;;;;;4959056;28;19917;-75
2023/05/19 11:20:01;;;;;;;;;;;;;;;;;;4955064;28;20375;-74
2023/05/19 11:22:27;;;;;;;;;;;;;;;;;;4958571;28;20131;-75
2023/05/19 11:24:53;;;;;;;;;;;;;;;;;;4952533;28;19925;-74
2023/05/19 11:27:19;;;;;;;;;;;;;;;;;;4958194;28;19913;-74
2023/05/19 11:29:45;;;;;;;;;;;;;;;;;;4957142;28;20337;-74
2023/05/19 11:32:11;;;;;;;;;;;;;;;;;;4956455;28;19921;-74
2023/05/19 11:34:37;;;;;;;;;;;;;;;;;;4956210;28;19949;-75
2023/05/19 11:37:03;;;;;;;;;;;;;;;;;;4954864;28;19913;-74
2023/05/19 11:39:29;;;;;;;;;;;;;;;;;;4958347;28;19918;-74
2023/05/19 11:41:55;;;;;;;;;;;;;;;;;;4957025;28;20005;-74
2023/05/19 11:44:21;;;;;;;;;;;;;;;;;;4966412;28;19994;-74
2023/05/19 11:46:47;;;;;;;;;;;;;;;;;;4961204;28;20353;-75
2023/05/19 11:49:13;;;;;;;;;;;;;;;;;;4961011;28;20472;-75
2023/05/19 11:51:39;;;;;;;;;;;;;;;;;;4964972;28;20044;-75
2023/05/19 11:54:05;;;;;;;;;;;;;;;;;;4959827;28;19936;-75
2023/05/19 11:56:31;;;;;;;;;;;;;;;;;;4964481;28;20305;-75
2023/05/19 11:58:57;;;;;;;;;;;;;;;;;;4959375;28;19918;-75
2023/05/19 12:01:25;;;;;;;;;;;;;;;;;;4963446;28;20305;-73
2023/05/19 12:03:51;;;;;;;;;;;;;;;;;;4959229;28;20495;-76
2023/05/19 12:06:17;;;;;;;;;;;;;;;;;;4965377;28;19914;-76
2023/05/19 12:08:43;;;;;;;;;;;;;;;;;;4962562;28;20309;-76
2023/05/19 12:11:09;;;;;;;;;;;;;;;;;;4959153;28;19952;-75
2023/05/19 12:13:35;;;;;;;;;;;;;;;;;;4960634;28;19914;-75
2023/05/19 12:16:01;;;;;;;;;;;;;;;;;;4960444;28;20141;-74
2023/05/19 12:18:27;;;;;;;;;;;;;;;;;;4957666;28;19921;-74
2023/05/19 12:20:53;;;;;;;;;;;;;;;;;;4956640;28;19944;-74
2023/05/19 12:23:19;;;;;;;;;;;;;;;;;;4960075;28;21454;-74
2023/05/19 12:25:45;;;;;;;;;;;;;;;;;;4958566;28;19924;-74
2023/05/19 12:28:11;;;;;;;;;;;;;;;;;;4957402;28;19914;-74
2023/05/19 12:30:37;;;;;;;;;;;;;;;;;;4963444;28;19971;-76
2023/05/19 12:33:03;;;;;;;;;;;;;;;;;;4958337;28;19918;-74
2023/05/19 12:35:29;;;;;;;;;;;;;;;;;;4960738;28;19914;-75
2023/05/19 12:37:55;;;;;;;;;;;;;;;;;;4958356;28;19918;-75
2023/05/19 12:40:21;;;;;;;;;;;;;;;;;;4956357;28;20308;-75
2023/05/19 12:42:48;;;;;;;;;;;;;;;;;;4958757;28;20482;-74
2023/05/19 12:45:14;;;;;;;;;;;;;;;;;;4958700;28;20289;-74
2023/05/19 12:47:40;;;;;;;;;;;;;;;;;;4960300;28;19916;-74
2023/05/19 12:50:09;;;;;;;;;;;;;;;;;;4952788;28;20603;-75
2023/05/19 12:52:35;;;;;;;;;;;;;;;;;;4958192;28;20044;-74
2023/05/19 12:55:03;;;;;;;;;;;;;;;;;;4953162;28;19924;-75
2023/05/19 12:57:31;;;;;;;;;;;;;;;;;;4958098;28;19913;-75
2023/05/19 12:59:57;;;;;;;;;;;;;;;;;;4954097;28;19914;-74
2023/05/19 13:02:23;;;;;;;;;;;;;;;;;;4958032;28;19925;-75
2023/05/19 13:04:49;;;;;;;;;;;;;;;;;;4955713;28;19997;-74
2023/05/19 13:07:15;;;;;;;;;;;;;;;;;;4960345;28;20425;-75
2023/05/19 13:09:41;;;;;;;;;;;;;;;;;;4958511;28;19913;-75
2023/05/19 13:12:07;;;;;;;;;;;;;;;;;;4958134;28;19925;-75
2023/05/19 13:14:33;;;;;;;;;;;;;;;;;;4957328;28;19996;-75
2023/05/19 13:16:59;;;;;;;;;;;;;;;;;;4953093;28;19956;-74
2023/05/19 13:19:25;;;;;;;;;;;;;;;;;;4956541;28;19976;-75
2023/05/19 13:21:51;;;;;;;;;;;;;;;;;;4955310;28;19920;-75
2023/05/19 13:24:17;;;;;;;;;;;;;;;;;;4958176;28;19924;-75
2023/05/19 13:26:43;;;;;;;;;;;;;;;;;;4959468;28;19953;-75
2023/05/19 13:29:10;;;;;;;;;;;;;;;;;;4956882;28;19917;-75
2023/05/19 13:31:36;;;;;;;;;;;;;;;;;;4959048;28;19939;-75
2023/05/19 13:34:02;;;;;;;;;;;;;;;;;;4955393;28;19913;-74
2023/05/19 13:36:28;;;;;;;;;;;;;;;;;;4955992;28;19922;-74
2023/05/19 13:38:54;;;;;;;;;;;;;;;;;;4952708;28;19952;-74
2023/05/19 13:41:20;;;;;;;;;;;;;;;;;;4955794;28;19920;-74
2023/05/19 13:43:46;;;;;;;;;;;;;;;;;;4959206;28;19914;-75
2023/05/19 13:46:12;;;;;;;;;;;;;;;;;;4952247;28;20337;-74
2023/05/19 13:48:38;;;;;;;;;;;;;;;;;;4957700;28;20951;-75
2023/05/19 13:51:04;;;;;;;;;;;;;;;;;;4957158;28;20452;-73
2023/05/19 13:53:31;;;;;;;;;;;;;;;;;;4951715;28;19920;-74
2023/05/19 13:55:57;;;;;;;;;;;;;;;;;;4953448;28;19914;-73
2023/05/19 13:58:23;;;;;;;;;;;;;;;;;;4958264;28;20550;-74
2023/05/19 14:00:53;;;;;;;;;;;;;;;;;;4955697;28;20016;-74
2023/05/19 14:03:19;;;;;;;;;;;;;;;;;;4954725;28;20323;-74
2023/05/19 14:05:45;;;;;;;;;;;;;;;;;;4957761;28;20046;-75
2023/05/19 14:08:11;;;;;;;;;;;;;;;;;;4953454;28;19996;-74
2023/05/19 14:10:38;;;;;;;;;;;;;;;;;;4958980;28;19972;-75
2023/05/19 14:13:04;;;;;;;;;;;;;;;;;;4953969;28;20112;-75
2023/05/19 14:15:33;;;;;;;;;;;;;;;;;;4958229;28;19933;-74
2023/05/19 14:17:59;;;;;;;;;;;;;;;;;;4953579;28;20559;-73
2023/05/19 14:20:25;;;;;;;;;;;;;;;;;;4956328;28;19926;-74
2023/05/19 14:22:51;;;;;;;;;;;;;;;;;;4953264;28;20341;-73
2023/05/19 14:25:17;;;;;;;;;;;;;;;;;;4956940;28;19988;-74
2023/05/19 14:27:43;;;;;;;;;;;;;;;;;;4955373;28;19941;-73
2023/05/19 14:30:09;;;;;;;;;;;;;;;;;;4947904;28;20472;-73
2023/05/19 14:32:35;;;;;;;;;;;;;;;;;;4948808;28;20860;-74
2023/05/19 14:35:01;;;;;;;;;;;;;;;;;;4951582;28;20651;-74
2023/05/19 14:37:27;;;;;;;;;;;;;;;;;;4951030;28;20465;-75
2023/05/19 14:39:53;;;;;;;;;;;;;;;;;;4949699;28;20230;-75
2023/05/19 14:42:19;;;;;;;;;;;;;;;;;;4950220;28;19914;-73
2023/05/19 14:44:45;;;;;;;;;;;;;;;;;;4948330;28;19914;-74
2023/05/19 14:47:11;;;;;;;;;;;;;;;;;;4944056;28;19913;-74
2023/05/19 14:49:37;;;;;;;;;;;;;;;;;;4949161;28;20296;-75
2023/05/19 14:52:03;;;;;;;;;;;;;;;;;;4947114;28;20953;-75
2023/05/19 14:54:29;;;;;;;;;;;;;;;;;;4949417;28;20224;-74
2023/05/19 14:56:55;;;;;;;;;;;;;;;;;;4944016;28;20629;-71
2023/05/19 14:59:21;;;;;;;;;;;;;;;;;;4949824;28;19944;-75
2023/05/19 15:01:47;;;;;;;;;;;;;;;;;;4952902;28;19914;-75
2023/05/19 15:04:13;;;;;;;;;;;;;;;;;;4944721;28;20206;-74
2023/05/19 15:06:39;;;;;;;;;;;;;;;;;;4953782;28;20024;-76
2023/05/19 15:09:05;;;;;;;;;;;;;;;;;;4955184;28;20074;-74
2023/05/19 15:11:31;;;;;;;;;;;;;;;;;;4957708;28;19944;-75
2023/05/19 15:13:57;;;;;;;;;;;;;;;;;;4950835;28;19917;-74
2023/05/19 15:16:23;;;;;;;;;;;;;;;;;;4960058;28;19913;-74
2023/05/19 15:18:50;;;;;;;;;;;;;;;;;;4958482;28;20543;-74
2023/05/19 15:21:16;;;;;;;;;;;;;;;;;;4963089;28;19929;-74
2023/05/19 15:23:42;;;;;;;;;;;;;;;;;;4959500;28;19914;-74
2023/05/19 15:26:08;;;;;;;;;;;;;;;;;;4958589;28;19920;-74
2023/05/19 15:28:34;;;;;;;;;;;;;;;;;;4961033;28;20039;-74
2023/05/19 15:31:00;;;;;;;;;;;;;;;;;;4958747;28;19913;-74
2023/05/19 15:33:26;;;;;;;;;;;;;;;;;;4962319;28;20169;-74
2023/05/19 15:35:53;;;;;;;;;;;;;;;;;;4959124;28;20408;-72
2023/05/19 15:38:19;;;;;;;;;;;;;;;;;;4960196;28;19929;-75
2023/05/19 15:40:45;;;;;;;;;;;;;;;;;;4960990;28;20218;-73
2023/05/19 15:43:11;;;;;;;;;;;;;;;;;;4959417;28;19949;-74
2023/05/19 15:45:37;;;;;;;;;;;;;;;;;;4963298;28;20559;-73
2023/05/19 15:48:03;;;;;;;;;;;;;;;;;;4958474;28;19925;-73
2023/05/19 15:50:29;;;;;;;;;;;;;;;;;;4964684;28;19925;-73
2023/05/19 15:52:55;;;;;;;;;;;;;;;;;;4960891;28;20007;-73
2023/05/19 15:55:21;;;;;;;;;;;;;;;;;;4961840;28;20064;-73
2023/05/19 15:57:47;;;;;;;;;;;;;;;;;;4955870;28;20298;-74
2023/05/19 16:00:13;;;;;;;;;;;;;;;;;;4956983;28;19964;-74
2023/05/19 16:02:39;;;;;;;;;;;;;;;;;;4959725;28;19921;-74
2023/05/19 16:05:05;;;;;;;;;;;;;;;;;;4958553;28;20634;-74
2023/05/19 16:07:31;;;;;;;;;;;;;;;;;;4956953;28;19921;-74
2023/05/19 16:09:57;;;;;;;;;;;;;;;;;;4956735;28;21320;-74
2023/05/19 16:12:23;;;;;;;;;;;;;;;;;;4962012;28;20371;-74
2023/05/19 16:14:49;;;;;;;;;;;;;;;;;;4956032;28;20260;-73
2023/05/19 16:17:16;;;;;;;;;;;;;;;;;;4961925;28;19910;-74
2023/05/19 16:19:42;;;;;;;;;;;;;;;;;;4957770;28;20250;-73
2023/05/19 16:22:08;;;;;;;;;;;;;;;;;;4954167;28;20874;-73
2023/05/19 16:24:34;;;;;;;;;;;;;;;;;;4958811;28;20325;-73
2023/05/19 16:27:00;;;;;;;;;;;;;;;;;;4957132;28;20003;-73
2023/05/19 16:29:26;;;;;;;;;;;;;;;;;;4960961;28;19917;-74
2023/05/19 16:31:52;;;;;;;;;;;;;;;;;;4958362;28;20520;-73
2023/05/19 16:34:18;;;;;;;;;;;;;;;;;;4958455;28;19920;-73
2023/05/19 16:36:44;;;;;;;;;;;;;;;;;;4959954;28;20897;-73
2023/05/19 16:39:10;;;;;;;;;;;;;;;;;;4954693;28;19918;-73